Time;durP1;ratioP1;P1;durP2;ratioP2;P2;SDS_P1;SDS_P2;PMS_P1;PMS_P2;Temp;Humidity;BMP_temperature;BMP_pressure;BME280_temperature;BME280_humidity;BME280_pressure;Samples;Min_cycle;Max_cycle;Signal;HPM_P1;HPM_P2
2021/05/30 00:01:59;;;;;;;5.30;3.67;;;21.20;42.30;;;;;;5019495;28;20125;-63
2021/05/30 00:04:24;;;;;;;5.13;3.75;;;21.30;42.50;;;;;;5018581;28;20479;-63
2021/05/30 00:06:50;;;;;;;5.40;4.22;;;21.20;42.40;;;;;;5012732;28;20454;-63
2021/05/30 00:09:16;;;;;;;4.00;3.40;;;21.10;42.60;;;;;;5010245;28;20136;-63
2021/05/30 00:11:42;;;;;;;4.82;4.28;;;20.90;42.70;;;;;;4999826;28;20035;-63
2021/05/30 00:14:08;;;;;;;4.30;3.90;;;21.10;42.60;;;;;;5017031;28;20072;-63
2021/05/30 00:16:35;;;;;;;5.07;3.65;;;20.90;42.70;;;;;;5015626;28;20395;-63
2021/05/30 00:19:01;;;;;;;4.22;3.78;;;20.80;43.00;;;;;;5014799;28;20050;-63
2021/05/30 00:21:27;;;;;;;5.68;4.10;;;20.80;43.40;;;;;;5012373;28;20051;-62
2021/05/30 00:23:53;;;;;;;3.67;3.30;;;20.80;43.30;;;;;;5010014;28;20042;-62
2021/05/30 00:26:18;;;;;;;4.40;3.88;;;20.80;43.40;;;;;;5010348;28;20107;-62
2021/05/30 00:28:44;;;;;;;5.22;4.07;;;20.70;43.90;;;;;;5000304;28;20046;-62
2021/05/30 00:31:10;;;;;;;4.75;3.50;;;20.80;44.00;;;;;;5022055;28;20041;-63
2021/05/30 00:33:35;;;;;;;4.05;3.65;;;20.60;44.50;;;;;;5013466;28;20042;-63
2021/05/30 00:36:01;;;;;;;5.35;3.78;;;20.70;44.50;;;;;;5004428;28;20435;-62
2021/05/30 00:38:27;;;;;;;4.88;3.90;;;20.60;44.80;;;;;;5005427;28;20098;-62
2021/05/30 00:40:53;;;;;;;4.80;3.90;;;20.50;45.10;;;;;;5019534;28;20046;-64
2021/05/30 00:43:19;;;;;;;3.83;3.53;;;20.60;45.10;;;;;;5021839;28;20058;-62
2021/05/30 00:45:47;;;;;;;4.75;4.00;;;20.60;45.20;;;;;;5009212;28;20087;-62
2021/05/30 00:48:13;;;;;;;4.10;3.70;;;20.50;45.40;;;;;;5018641;28;20044;-60
2021/05/30 00:50:39;;;;;;;4.07;3.60;;;20.60;45.70;;;;;;5019408;28;20037;-63
2021/05/30 00:53:06;;;;;;;4.20;3.72;;;20.60;45.70;;;;;;5026956;28;20038;-63
2021/05/30 00:55:31;;;;;;;3.72;3.42;;;20.60;46.00;;;;;;5020007;28;20075;-63
2021/05/30 00:57:57;;;;;;;4.55;3.75;;;20.40;45.80;;;;;;5021443;28;20182;-63
2021/05/30 01:00:23;;;;;;;4.18;3.80;;;20.50;45.90;;;;;;5000537;28;20073;-64
2021/05/30 01:02:50;;;;;;;4.25;3.50;;;20.50;46.20;;;;;;5021712;28;20300;-63
2021/05/30 01:05:16;;;;;;;5.10;4.60;;;20.40;46.20;;;;;;5008579;28;20052;-63
2021/05/30 01:07:42;;;;;;;9.18;3.92;;;20.50;46.20;;;;;;5021132;28;20034;-64
2021/05/30 01:10:29;;;;;;;3.83;3.38;;;20.40;46.40;;;;;;5019791;28;20037;-64
2021/05/30 01:12:56;;;;;;;4.47;3.53;;;20.40;46.80;;;;;;4989172;28;20046;-64
2021/05/30 01:15:22;;;;;;;4.45;3.60;;;20.30;46.90;;;;;;5011078;28;20506;-64
2021/05/30 01:17:52;;;;;;;8.63;3.67;;;20.30;46.90;;;;;;4999609;28;20031;-63
2021/05/30 01:20:18;;;;;;;3.72;3.42;;;20.20;47.20;;;;;;5001193;28;20044;-63
2021/05/30 01:22:46;;;;;;;4.80;3.88;;;20.30;47.00;;;;;;5015193;28;20037;-62
2021/05/30 01:25:14;;;;;;;7.65;4.10;;;20.10;47.30;;;;;;5006191;28;20041;-64
2021/05/30 01:27:40;;;;;;;5.00;3.58;;;20.00;47.50;;;;;;5008097;28;20034;-64
2021/05/30 01:30:08;;;;;;;4.15;3.40;;;20.10;47.40;;;;;;5008098;28;20043;-64
2021/05/30 01:32:33;;;;;;;4.00;3.65;;;20.00;47.80;;;;;;5006551;28;20038;-64
2021/05/30 01:35:00;;;;;;;3.70;3.42;;;20.10;47.80;;;;;;5009031;28;20037;-64
2021/05/30 01:37:25;;;;;;;3.85;3.55;;;20.00;47.70;;;;;;5016600;28;20176;-64
2021/05/30 01:39:51;;;;;;;5.35;4.22;;;19.90;48.00;;;;;;5019439;28;20152;-63
2021/05/30 01:42:17;;;;;;;5.68;4.25;;;20.00;48.90;;;;;;5009138;28;20418;-64
2021/05/30 01:44:42;;;;;;;4.10;3.70;;;19.90;48.00;;;;;;5015579;28;20507;-64
2021/05/30 01:47:08;;;;;;;4.05;3.67;;;19.90;48.00;;;;;;5006200;28;20068;-65
2021/05/30 01:49:35;;;;;;;4.22;3.83;;;19.80;48.30;;;;;;5015539;28;20112;-64
2021/05/30 01:52:03;;;;;;;4.88;4.13;;;19.90;48.30;;;;;;4999561;28;20065;-64
2021/05/30 01:54:29;;;;;;;5.97;3.92;;;19.90;48.10;;;;;;5012663;28;20060;-63
2021/05/30 01:56:56;;;;;;;4.43;3.88;;;19.90;48.20;;;;;;5017531;28;20053;-63
2021/05/30 01:59:25;;;;;;;6.05;4.18;;;19.90;48.40;;;;;;5015284;28;20133;-63
2021/05/30 02:01:54;;;;;;;5.68;4.15;;;20.00;48.40;;;;;;5019191;28;20722;-62
2021/05/30 02:04:24;;;;;;;4.65;3.88;;;19.90;48.70;;;;;;5003073;28;20099;-63
2021/05/30 02:06:50;;;;;;;4.28;3.53;;;19.90;48.80;;;;;;5006265;28;20062;-63
2021/05/30 02:09:17;;;;;;;4.88;4.38;;;19.80;49.40;;;;;;5008306;28;20042;-63
2021/05/30 02:11:43;;;;;;;4.07;3.78;;;19.80;48.90;;;;;;5020533;28;20125;-64
2021/05/30 02:14:09;;;;;;;4.57;4.07;;;19.80;49.00;;;;;;5010686;28;20052;-64
2021/05/30 02:16:37;;;;;;;4.78;4.25;;;19.70;49.20;;;;;;4997192;28;20523;-64
2021/05/30 02:19:03;;;;;;;4.68;4.28;;;19.80;49.40;;;;;;5010535;28;20034;-64
2021/05/30 02:21:50;;;;;;;4.45;3.75;;;19.80;49.00;;;;;;5013330;28;20076;-64
2021/05/30 02:24:18;;;;;;;4.15;3.75;;;19.70;50.00;;;;;;5042405;28;20488;-64
2021/05/30 02:26:44;;;;;;;3.95;3.55;;;19.60;49.80;;;;;;5018236;28;20030;-63
2021/05/30 02:29:14;;;;;;;5.03;3.83;;;19.50;49.80;;;;;;5020168;28;20038;-64
2021/05/30 02:31:39;;;;;;;4.55;3.88;;;19.40;50.30;;;;;;5028035;28;20045;-64
2021/05/30 02:34:05;;;;;;;4.43;3.55;;;19.50;50.00;;;;;;5000683;28;20048;-64
2021/05/30 02:36:30;;;;;;;4.32;3.92;;;19.50;49.90;;;;;;5012530;28;20700;-64
2021/05/30 02:38:56;;;;;;;4.50;4.05;;;19.50;50.00;;;;;;5009389;28;20042;-64
2021/05/30 02:41:28;;;;;;;4.25;3.88;;;19.50;50.10;;;;;;5017803;28;20061;-64
2021/05/30 02:43:53;;;;;;;4.10;3.70;;;19.60;50.40;;;;;;5006774;28;20049;-64
2021/05/30 02:46:19;;;;;;;4.20;3.85;;;19.50;50.20;;;;;;5026856;28;20063;-63
2021/05/30 02:48:45;;;;;;;4.15;3.75;;;19.50;50.30;;;;;;5023432;28;20033;-63
2021/05/30 02:51:10;;;;;;;5.78;3.65;;;19.40;50.60;;;;;;5021345;28;20151;-64
2021/05/30 02:53:36;;;;;;;4.18;3.28;;;19.40;50.90;;;;;;5016189;28;20459;-63
2021/05/30 02:56:02;;;;;;;4.20;3.80;;;19.30;50.90;;;;;;5009809;28;20083;-61
2021/05/30 02:58:31;;;;;;;5.35;3.55;;;19.20;51.40;;;;;;5021738;28;20495;-63
2021/05/30 03:00:57;;;;;;;3.65;3.35;;;19.30;51.40;;;;;;5018131;28;20045;-63
2021/05/30 03:03:23;;;;;;;3.40;3.10;;;19.20;51.50;;;;;;5035409;28;20050;-63
2021/05/30 03:05:49;;;;;;;4.47;3.15;;;19.10;51.70;;;;;;5021128;28;20037;-63
2021/05/30 03:08:14;;;;;;;4.07;3.67;;;19.00;52.00;;;;;;5022928;28;20026;-63
2021/05/30 03:10:41;;;;;;;3.38;3.08;;;19.00;52.00;;;;;;5030332;28;20118;-64
2021/05/30 03:13:07;;;;;;;4.25;3.50;;;19.10;52.00;;;;;;5023290;28;20075;-64
2021/05/30 03:15:33;;;;;;;3.50;3.20;;;19.20;51.80;;;;;;5011753;28;20042;-63
2021/05/30 03:17:58;;;;;;;4.38;3.15;;;19.20;52.00;;;;;;5033655;28;20045;-64
2021/05/30 03:20:24;;;;;;;3.75;2.83;;;18.90;52.30;;;;;;5019230;28;20049;-63
2021/05/30 03:22:50;;;;;;;8.07;4.03;;;18.90;52.50;;;;;;5012286;28;20046;-63
2021/05/30 03:25:15;;;;;;;4.63;4.25;;;18.90;52.60;;;;;;5010025;28;20121;-63
2021/05/30 03:27:41;;;;;;;7.38;4.07;;;18.90;52.80;;;;;;5016249;28;20048;-64
2021/05/30 03:30:09;;;;;;;5.32;3.90;;;18.80;53.30;;;;;;5025773;28;20045;-64
2021/05/30 03:32:36;;;;;;;3.97;3.58;;;18.80;52.90;;;;;;4998444;28;20042;-63
2021/05/30 03:35:02;;;;;;;4.72;3.45;;;18.80;53.00;;;;;;5005588;28;20067;-63
2021/05/30 03:37:28;;;;;;;4.90;3.50;;;18.80;53.00;;;;;;4999816;28;20046;-64
2021/05/30 03:39:57;;;;;;;3.85;3.20;;;18.80;52.80;;;;;;5009364;28;20429;-63
2021/05/30 03:42:27;;;;;;;5.93;3.78;;;18.90;52.60;;;;;;5016020;28;20259;-64
2021/05/30 03:44:56;;;;;;;3.90;3.60;;;18.90;52.60;;;;;;5013046;28;20033;-63
2021/05/30 03:47:21;;;;;;;4.57;3.70;;;19.00;52.70;;;;;;5020342;28;20060;-64
2021/05/30 03:49:47;;;;;;;4.40;4.00;;;19.10;52.20;;;;;;5011298;28;20504;-63
2021/05/30 03:52:13;;;;;;;4.40;3.85;;;19.00;52.30;;;;;;5016015;28;20095;-64
2021/05/30 03:54:38;;;;;;;4.07;3.67;;;19.00;52.40;;;;;;5031210;28;20041;-64
2021/05/30 03:57:04;;;;;;;5.10;4.60;;;19.00;52.40;;;;;;5018380;28;20053;-64
2021/05/30 03:59:30;;;;;;;4.22;3.83;;;19.00;52.20;;;;;;5006893;28;20034;-64
2021/05/30 04:01:55;;;;;;;4.55;4.13;;;19.00;52.20;;;;;;4997613;28;20561;-63
2021/05/30 04:04:21;;;;;;;3.75;3.45;;;19.10;52.00;;;;;;5012364;28;20049;-63
2021/05/30 04:06:47;;;;;;;4.18;3.80;;;18.90;52.20;;;;;;5012187;28;20060;-62
2021/05/30 04:09:12;;;;;;;4.82;3.85;;;19.00;52.00;;;;;;5017106;28;20055;-63
2021/05/30 04:11:38;;;;;;;4.20;3.80;;;19.00;51.90;;;;;;5022692;28;20088;-63
2021/05/30 04:14:04;;;;;;;4.65;4.22;;;19.00;51.70;;;;;;5020763;28;20431;-64
2021/05/30 04:16:29;;;;;;;4.03;3.72;;;19.00;52.00;;;;;;5021381;28;20038;-64
2021/05/30 04:18:55;;;;;;;5.15;4.65;;;19.00;51.90;;;;;;5021516;28;20955;-63
2021/05/30 04:21:21;;;;;;;4.13;3.72;;;19.00;51.80;;;;;;5024008;28;20108;-63
2021/05/30 04:23:46;;;;;;;4.13;3.70;;;19.00;51.70;;;;;;5017600;28;20041;-61
2021/05/30 04:26:12;;;;;;;3.85;3.58;;;19.10;51.60;;;;;;5030336;28;20037;-64
2021/05/30 04:28:38;;;;;;;4.35;4.00;;;19.00;51.60;;;;;;5019793;28;20091;-63
2021/05/30 04:31:04;;;;;;;3.90;3.60;;;19.00;51.50;;;;;;5009039;28;20042;-63
2021/05/30 04:33:30;;;;;;;4.45;3.35;;;19.00;51.50;;;;;;5009843;28;20030;-64
2021/05/30 04:35:55;;;;;;;4.32;3.45;;;19.00;51.60;;;;;;5005541;28;20068;-63
2021/05/30 04:38:21;;;;;;;3.97;3.63;;;19.00;51.50;;;;;;5021705;28;20371;-63
2021/05/30 04:40:48;;;;;;;4.28;3.50;;;19.10;51.30;;;;;;5025122;28;20391;-63
2021/05/30 04:43:14;;;;;;;3.58;3.28;;;19.00;51.10;;;;;;5023829;28;20097;-63
2021/05/30 04:45:40;;;;;;;4.10;3.70;;;19.00;50.60;;;;;;5015018;28;20042;-64
2021/05/30 04:48:07;;;;;;;4.28;3.45;;;18.70;50.70;;;;;;5018034;28;20037;-63
2021/05/30 04:50:33;;;;;;;3.53;3.22;;;18.80;50.40;;;;;;5007926;28;20046;-63
2021/05/30 04:52:59;;;;;;;3.80;3.50;;;18.90;50.90;;;;;;4994719;28;20038;-63
2021/05/30 04:55:24;;;;;;;3.70;3.20;;;18.90;50.00;;;;;;5000710;28;20141;-62
2021/05/30 04:57:50;;;;;;;3.53;2.75;;;18.90;50.00;;;;;;5007130;28;20049;-63
2021/05/30 05:00:16;;;;;;;3.90;2.47;;;18.90;49.60;;;;;;5012217;28;20045;-64
2021/05/30 05:02:42;;;;;;;3.58;2.92;;;18.90;49.50;;;;;;5018302;28;20053;-63
2021/05/30 05:05:12;;;;;;;4.80;3.10;;;18.90;49.40;;;;;;5011837;28;20033;-63
2021/05/30 05:07:42;;;;;;;3.72;3.08;;;18.90;49.10;;;;;;5022266;28;21442;-63
2021/05/30 05:10:09;;;;;;;3.08;2.85;;;18.90;49.30;;;;;;5000209;28;20053;-63
2021/05/30 05:12:35;;;;;;;3.50;3.20;;;18.70;49.30;;;;;;5009790;28;20044;-63
2021/05/30 05:15:00;;;;;;;2.78;2.58;;;18.90;49.00;;;;;;5015677;28;20049;-63
2021/05/30 05:17:26;;;;;;;2.63;2.42;;;18.80;49.00;;;;;;5017910;28;20385;-63
2021/05/30 05:19:52;;;;;;;2.92;2.67;;;18.80;48.70;;;;;;5013755;28;20041;-62
2021/05/30 05:22:18;;;;;;;2.97;2.67;;;18.90;48.00;;;;;;5007581;28;20057;-63
2021/05/30 05:24:44;;;;;;;4.65;2.58;;;18.80;48.10;;;;;;5005929;28;20038;-63
2021/05/30 05:27:10;;;;;;;2.70;2.47;;;18.90;48.10;;;;;;5003279;28;20050;-63
2021/05/30 05:29:36;;;;;;;3.38;2.53;;;19.00;47.80;;;;;;5010859;28;20052;-63
2021/05/30 05:32:03;;;;;;;2.05;1.92;;;19.10;47.30;;;;;;5014136;28;20100;-63
2021/05/30 05:34:28;;;;;;;2.25;2.10;;;19.00;47.00;;;;;;5014061;28;20037;-63
2021/05/30 05:36:54;;;;;;;2.63;2.42;;;18.90;47.10;;;;;;5014398;28;20034;-63
2021/05/30 05:39:20;;;;;;;3.20;1.92;;;19.00;46.80;;;;;;5001487;28;20125;-63
2021/05/30 05:41:48;;;;;;;1.85;1.75;;;19.00;46.80;;;;;;5004945;28;20073;-63
2021/05/30 05:44:14;;;;;;;2.50;2.30;;;19.10;46.50;;;;;;5008763;28;20045;-63
2021/05/30 05:46:39;;;;;;;2.03;1.83;;;19.00;45.70;;;;;;5004431;28;20041;-63
2021/05/30 05:49:05;;;;;;;1.80;1.70;;;19.00;46.20;;;;;;5015931;28;20403;-64
2021/05/30 05:51:31;;;;;;;2.08;1.98;;;19.10;46.20;;;;;;4997904;28;20038;-62
2021/05/30 05:53:56;;;;;;;2.25;1.77;;;19.20;45.90;;;;;;5016575;28;20037;-63
2021/05/30 05:56:22;;;;;;;1.92;1.75;;;19.10;45.00;;;;;;5018945;28;20509;-63
2021/05/30 05:58:47;;;;;;;3.53;1.80;;;19.20;45.20;;;;;;5009313;28;20049;-62
2021/05/30 06:01:13;;;;;;;2.58;1.90;;;19.40;45.10;;;;;;5018718;28;20049;-63
2021/05/30 06:03:39;;;;;;;2.10;2.00;;;19.50;45.00;;;;;;5003643;28;20849;-62
2021/05/30 06:06:05;;;;;;;2.63;1.80;;;19.40;44.30;;;;;;5017149;28;20400;-63
2021/05/30 06:08:31;;;;;;;1.58;1.48;;;19.40;45.00;;;;;;5012653;28;20037;-62
2021/05/30 06:10:57;;;;;;;3.67;1.60;;;19.40;44.30;;;;;;5019648;28;20033;-63
2021/05/30 06:13:23;;;;;;;1.92;1.70;;;19.40;44.40;;;;;;5014552;28;20048;-62
2021/05/30 06:15:49;;;;;;;2.35;1.77;;;19.50;44.50;;;;;;5020439;28;20557;-62
2021/05/30 06:18:16;;;;;;;3.70;1.67;;;19.50;44.30;;;;;;5019101;28;20053;-62
2021/05/30 06:20:44;;;;;;;2.08;1.67;;;19.50;44.30;;;;;;5023197;28;20049;-63
2021/05/30 06:23:11;;;;;;;2.40;1.77;;;19.40;44.20;;;;;;5015517;28;20037;-65
2021/05/30 06:25:37;;;;;;;3.40;1.70;;;19.40;44.20;;;;;;5025602;28;20049;-63
2021/05/30 06:28:03;;;;;;;1.85;1.70;;;19.50;44.30;;;;;;5021522;28;20033;-63
2021/05/30 06:30:36;;;;;;;1.88;1.63;;;19.60;44.20;;;;;;5017253;28;20034;-63
2021/05/30 06:33:03;;;;;;;1.65;1.45;;;19.50;44.20;;;;;;5014870;28;20045;-63
2021/05/30 06:35:31;;;;;;;2.65;1.80;;;19.50;43.80;;;;;;5019768;28;20061;-63
2021/05/30 06:37:56;;;;;;;1.88;1.35;;;19.70;44.20;;;;;;5013011;28;20160;-63
2021/05/30 06:40:22;;;;;;;2.03;1.58;;;19.70;44.30;;;;;;5007423;28;20080;-63
2021/05/30 06:42:49;;;;;;;1.92;1.73;;;19.80;44.30;;;;;;5007845;28;20069;-62
2021/05/30 06:45:15;;;;;;;1.90;1.60;;;19.90;44.10;;;;;;5004732;28;20188;-63
2021/05/30 06:47:41;;;;;;;2.47;1.83;;;19.90;44.20;;;;;;5013345;28;20035;-64
2021/05/30 06:50:10;;;;;;;3.20;1.73;;;19.90;44.20;;;;;;5013726;28;20050;-63
2021/05/30 06:52:36;;;;;;;4.28;2.03;;;19.90;44.10;;;;;;5015800;28;20352;-64
2021/05/30 06:55:02;;;;;;;1.98;1.48;;;19.90;44.10;;;;;;5013791;28;20369;-63
2021/05/30 06:57:28;;;;;;;2.03;1.67;;;19.90;44.00;;;;;;5006205;28;20045;-63
2021/05/30 06:59:54;;;;;;;1.30;1.20;;;19.90;43.90;;;;;;5019660;28;20045;-64
2021/05/30 07:02:19;;;;;;;2.15;1.40;;;20.00;43.90;;;;;;5023528;28;20415;-64
2021/05/30 07:04:45;;;;;;;1.48;1.35;;;20.10;43.90;;;;;;5022108;28;20061;-63
2021/05/30 07:07:11;;;;;;;1.88;1.77;;;20.10;43.70;;;;;;5023465;28;22244;-64
2021/05/30 07:09:37;;;;;;;3.63;1.45;;;20.20;44.00;;;;;;5011138;28;20123;-64
2021/05/30 07:12:04;;;;;;;3.78;1.30;;;20.30;44.10;;;;;;5020397;28;20072;-64
2021/05/30 07:14:30;;;;;;;3.53;1.33;;;20.40;43.80;;;;;;5025863;28;20044;-64
2021/05/30 07:16:56;;;;;;;4.07;1.60;;;20.30;44.00;;;;;;5013863;28;20038;-64
2021/05/30 07:19:23;;;;;;;2.15;1.30;;;20.20;44.30;;;;;;5014395;28;20044;-64
2021/05/30 07:21:49;;;;;;;1.60;1.40;;;20.30;44.30;;;;;;5004780;28;20050;-64
2021/05/30 07:24:15;;;;;;;1.60;1.50;;;20.30;44.20;;;;;;5030346;28;20083;-64
2021/05/30 07:26:42;;;;;;;2.88;1.90;;;20.40;44.10;;;;;;5019244;28;20479;-65
2021/05/30 07:29:08;;;;;;;2.28;1.67;;;20.50;44.00;;;;;;5018881;28;20247;-62
2021/05/30 07:31:34;;;;;;;2.78;1.20;;;20.70;43.90;;;;;;5018925;28;20041;-61
2021/05/30 07:34:01;;;;;;;4.28;1.90;;;20.70;43.80;;;;;;5025554;28;20569;-62
2021/05/30 07:36:28;;;;;;;4.63;1.83;;;20.90;43.80;;;;;;5019400;28;20041;-62
2021/05/30 07:38:55;;;;;;;2.03;1.80;;;20.80;43.60;;;;;;5019960;28;20038;-62
2021/05/30 07:41:21;;;;;;;1.83;1.67;;;20.90;43.80;;;;;;5013431;28;20130;-61
2021/05/30 07:43:48;;;;;;;3.63;1.80;;;20.90;44.00;;;;;;5013230;28;20039;-60
2021/05/30 07:46:14;;;;;;;2.38;1.45;;;20.90;43.80;;;;;;5005540;28;20042;-61
2021/05/30 07:48:39;;;;;;;1.65;1.55;;;20.90;43.90;;;;;;5010874;28;20042;-60
2021/05/30 07:51:05;;;;;;;1.45;1.35;;;21.00;43.80;;;;;;4992336;28;20069;-63
2021/05/30 07:53:33;;;;;;;3.65;1.60;;;21.10;43.70;;;;;;5001784;28;20042;-62
2021/05/30 07:55:58;;;;;;;2.25;1.40;;;21.00;43.50;;;;;;5017099;28;20049;-63
2021/05/30 07:58:24;;;;;;;2.22;1.60;;;21.10;43.40;;;;;;5023617;28;20495;-62
2021/05/30 08:00:51;;;;;;;2.67;1.60;;;21.10;43.10;;;;;;5013541;28;21611;-62
2021/05/30 08:03:16;;;;;;;2.80;1.67;;;21.20;43.20;;;;;;5014226;28;20120;-63
2021/05/30 08:05:42;;;;;;;1.52;1.40;;;21.40;42.70;;;;;;5024824;28;20065;-63
2021/05/30 08:08:08;;;;;;;1.88;1.40;;;21.50;42.40;;;;;;5018314;28;20034;-64
2021/05/30 08:10:33;;;;;;;2.42;2.00;;;21.60;42.60;;;;;;5020125;28;20499;-63
2021/05/30 08:12:59;;;;;;;2.97;1.52;;;21.70;41.70;;;;;;5021233;28;20068;-65
2021/05/30 08:15:25;;;;;;;3.47;1.00;;;21.80;41.50;;;;;;5027412;28;20041;-64
2021/05/30 08:17:52;;;;;;;1.30;1.20;;;21.90;41.30;;;;;;5021003;28;20037;-63
2021/05/30 08:20:19;;;;;;;2.40;1.60;;;21.90;41.00;;;;;;5009774;28;20053;-62
2021/05/30 08:22:45;;;;;;;1.50;1.40;;;22.00;41.00;;;;;;5021586;28;20102;-64
2021/05/30 08:25:11;;;;;;;1.42;1.33;;;22.10;40.90;;;;;;5018394;28;20475;-64
2021/05/30 08:27:37;;;;;;;3.28;2.30;;;22.20;40.90;;;;;;5008713;28;23142;-63
2021/05/30 08:30:06;;;;;;;2.10;1.38;;;22.30;40.30;;;;;;5020739;28;20053;-64
2021/05/30 08:32:32;;;;;;;1.63;1.52;;;22.40;40.50;;;;;;5014581;28;20041;-64
2021/05/30 08:34:57;;;;;;;1.70;1.60;;;22.40;40.10;;;;;;5000135;28;20095;-63
2021/05/30 08:37:23;;;;;;;3.40;2.15;;;22.60;40.00;;;;;;4998190;28;20061;-63
2021/05/30 08:39:50;;;;;;;2.53;2.28;;;22.60;39.50;;;;;;5003400;28;20037;-63
2021/05/30 08:42:20;;;;;;;1.83;1.73;;;22.50;39.30;;;;;;5005059;28;20107;-64
2021/05/30 08:44:47;;;;;;;2.03;1.92;;;22.60;38.90;;;;;;4994853;28;20406;-64
2021/05/30 08:47:12;;;;;;;1.80;1.38;;;22.60;39.00;;;;;;5007725;28;20099;-64
2021/05/30 08:49:38;;;;;;;2.72;1.90;;;22.50;38.80;;;;;;4995558;28;20431;-64
2021/05/30 08:52:04;;;;;;;3.45;1.73;;;22.50;39.00;;;;;;4988431;28;20068;-63
2021/05/30 08:54:31;;;;;;;3.85;1.60;;;22.50;38.70;;;;;;4991006;28;20051;-63
2021/05/30 08:56:57;;;;;;;3.50;2.28;;;22.50;38.70;;;;;;4994881;28;20064;-64
2021/05/30 08:59:28;;;;;;;2.05;1.60;;;22.60;39.00;;;;;;4988314;28;20492;-63
2021/05/30 09:01:55;;;;;;;1.73;1.63;;;22.60;38.80;;;;;;5003603;28;20050;-63
2021/05/30 09:04:41;;;;;;;4.35;2.17;;;22.50;38.60;;;;;;4997048;28;20050;-63
2021/05/30 09:07:08;;;;;;;2.55;1.33;;;22.60;38.40;;;;;;4992401;28;20613;-63
2021/05/30 09:09:42;;;;;;;3.88;1.58;;;22.50;38.60;;;;;;4990337;28;20111;-63
2021/05/30 09:12:20;;;;;;;;;;;22.60;38.40;;;;;;5005776;28;20120;-63
2021/05/30 09:14:49;;;;;;;1.73;1.63;;;22.50;38.00;;;;;;4990899;28;20494;-63
2021/05/30 09:17:15;;;;;;;2.25;2.05;;;22.50;38.40;;;;;;5007827;28;20256;-63
2021/05/30 09:19:50;;;;;;;6.25;1.60;;;22.50;38.60;;;;;;4990497;28;20141;-63
2021/05/30 09:22:25;;;;;;;2.08;1.90;;;22.50;38.50;;;;;;5001248;28;20057;-63
2021/05/30 09:24:51;;;;;;;3.03;2.10;;;22.60;38.20;;;;;;4991223;28;20038;-63
2021/05/30 09:27:23;;;;;;;14.25;12.48;;;22.70;37.30;;;;;;4990847;28;20046;-62
2021/05/30 09:30:11;;;;;;;4.55;3.58;;;22.80;37.10;;;;;;4992260;28;20069;-63
2021/05/30 09:32:54;;;;;;;2.85;2.65;;;23.00;37.50;;;;;;5002731;28;20042;-64
2021/05/30 09:35:21;;;;;;;3.95;2.45;;;23.00;37.30;;;;;;5001953;28;20083;-64
2021/05/30 09:38:12;;;;;;;2.88;1.90;;;23.00;37.60;;;;;;5004443;28;20044;-64
2021/05/30 09:40:48;;;;;;;2.47;2.28;;;23.00;37.30;;;;;;4983417;28;20033;-64
2021/05/30 09:43:23;;;;;;;7.15;2.28;;;23.00;37.20;;;;;;5011345;28;20514;-64
2021/05/30 09:46:15;;;;;;;2.88;2.08;;;23.00;37.00;;;;;;5006574;28;20033;-63
2021/05/30 09:48:51;;;;;;;2.00;1.80;;;23.10;36.70;;;;;;5024370;28;20052;-64
2021/05/30 09:51:36;;;;;;;4.68;3.28;;;23.20;37.10;;;;;;5006591;28;20045;-64
2021/05/30 09:54:07;;;;;;;2.95;2.28;;;23.30;36.90;;;;;;4986493;28;20268;-65
2021/05/30 09:56:39;;;;;;;2.13;1.90;;;23.40;36.70;;;;;;5007299;28;20521;-64
2021/05/30 09:59:09;;;;;;;2.55;2.03;;;23.60;36.30;;;;;;5009554;28;20037;-64
2021/05/30 10:01:48;;;;;;;2.10;2.00;;;23.60;35.80;;;;;;5006506;28;20515;-64
2021/05/30 10:04:14;;;;;;;2.90;2.10;;;23.70;35.50;;;;;;5012135;28;20487;-64
2021/05/30 10:06:41;;;;;;;3.25;2.10;;;23.70;35.70;;;;;;5017546;28;20087;-64
2021/05/30 10:09:12;;;;;;;2.80;2.60;;;23.80;35.40;;;;;;5023845;28;20052;-64
2021/05/30 10:11:38;;;;;;;3.42;2.65;;;23.80;34.80;;;;;;5019912;28;20053;-64
2021/05/30 10:14:05;;;;;;;2.70;2.20;;;23.90;34.20;;;;;;5014431;28;20063;-64
2021/05/30 10:16:34;;;;;;;2.50;2.30;;;23.80;34.80;;;;;;5011301;28;20049;-64
2021/05/30 10:19:28;;;;;;;2.13;1.90;;;23.80;35.10;;;;;;5012601;28;20128;-64
2021/05/30 10:22:00;;;;;;;2.37;2.17;;;23.90;34.70;;;;;;4991347;28;20128;-64
2021/05/30 10:24:26;;;;;;;3.03;1.88;;;23.80;34.50;;;;;;5009660;28;20084;-64
2021/05/30 10:27:23;;;;;;;1.85;1.75;;;23.90;34.60;;;;;;5015908;28;20184;-63
2021/05/30 10:30:16;;;;;;;1.77;1.60;;;23.90;33.80;;;;;;5019376;28;20064;-62
2021/05/30 10:32:47;;;;;;;2.92;1.73;;;23.90;32.90;;;;;;5019069;28;20083;-64
2021/05/30 10:35:23;;;;;;;2.65;2.33;;;23.80;33.70;;;;;;5018969;28;20112;-64
2021/05/30 10:37:54;;;;;;;2.63;2.28;;;23.70;33.40;;;;;;5003376;28;20526;-63
2021/05/30 10:40:23;;;;;;;1.98;1.75;;;23.80;33.30;;;;;;5019556;28;20040;-63
2021/05/30 10:43:10;;;;;;;4.15;2.00;;;23.70;32.30;;;;;;5009838;28;20041;-58
2021/05/30 10:45:43;;;;;;;2.50;2.25;;;23.90;32.10;;;;;;4998365;28;20042;-64
2021/05/30 10:48:12;;;;;;;2.10;1.70;;;23.90;33.00;;;;;;5006135;28;20053;-64
2021/05/30 10:50:41;;;;;;;2.22;2.08;;;23.80;32.60;;;;;;5010753;28;20033;-63
2021/05/30 10:53:28;;;;;;;2.53;2.33;;;23.70;32.90;;;;;;5017511;28;20134;-64
2021/05/30 10:56:13;;;;;;;3.63;2.33;;;23.70;31.80;;;;;;4982532;28;20038;-63
2021/05/30 10:58:40;;;;;;;2.17;1.88;;;23.80;32.10;;;;;;5014987;28;20132;-64
2021/05/30 11:01:06;;;;;;;1.98;1.88;;;24.10;32.00;;;;;;5012325;28;20502;-64
2021/05/30 11:03:31;;;;;;;3.90;2.25;;;24.60;30.90;;;;;;5000232;28;20050;-64
2021/05/30 11:05:57;;;;;;;4.40;2.30;;;25.30;35.80;;;;;;4997394;28;20030;-64
2021/05/30 11:08:30;;;;;;;1.90;1.80;;;;;;;;;;5018477;28;20044;-64
2021/05/30 11:11:17;;;;;;;2.38;2.20;;;26.40;28.30;;;;;;5015737;28;20144;-64
2021/05/30 11:13:53;;;;;;;2.10;1.98;;;27.00;36.90;;;;;;5020020;28;20037;-64
2021/05/30 11:16:20;;;;;;;2.33;2.17;;;27.50;30.40;;;;;;5019638;28;20030;-61
2021/05/30 11:18:57;;;;;;;2.88;2.17;;;28.10;26.90;;;;;;5014716;28;20038;-64
2021/05/30 11:21:36;;;;;;;2.95;1.52;;;28.40;26.60;;;;;;5019823;28;20141;-63
2021/05/30 11:24:07;;;;;;;3.72;2.83;;;28.70;28.00;;;;;;5004488;28;20610;-63
2021/05/30 11:26:33;;;;;;;3.70;2.25;;;28.30;25.20;;;;;;5015504;28;20041;-62
2021/05/30 11:28:59;;;;;;;2.22;2.13;;;28.60;43.50;;;;;;5015240;28;20040;-63
2021/05/30 11:31:26;;;;;;;2.67;1.88;;;28.20;42.50;;;;;;5019377;28;20041;-65
2021/05/30 11:34:07;;;;;;;2.10;1.90;;;27.70;43.70;;;;;;5017057;28;20391;-66
2021/05/30 11:36:37;;;;;;;2.63;2.05;;;27.40;34.70;;;;;;5019030;28;20049;-66
2021/05/30 11:39:19;;;;;;;3.70;2.20;;;27.20;33.60;;;;;;5006773;28;20433;-63
2021/05/30 11:41:46;;;;;;;3.28;2.20;;;27.50;31.80;;;;;;5007126;28;20104;-63
2021/05/30 11:44:16;;;;;;;2.33;2.22;;;27.00;32.70;;;;;;5005150;28;20041;-62
2021/05/30 11:46:57;;;;;;;4.35;2.60;;;26.60;29.70;;;;;;4997988;28;20114;-63
2021/05/30 11:49:34;;;;;;;2.55;2.35;;;26.30;27.90;;;;;;5020145;28;20048;-62
2021/05/30 11:52:20;;;;;;;4.63;1.95;;;26.00;38.60;;;;;;5013782;28;20046;-63
2021/05/30 11:54:49;;;;;;;3.00;1.95;;;26.30;28.10;;;;;;5009495;28;20035;-63
2021/05/30 11:57:24;;;;;;;2.47;1.88;;;27.30;27.20;;;;;;5012153;28;20133;-62
2021/05/30 12:00:00;;;;;;;3.13;2.33;;;27.60;26.90;;;;;;5014035;28;20076;-62
2021/05/30 12:02:38;;;;;;;3.47;2.80;;;28.10;26.50;;;;;;5018923;28;20403;-63
2021/05/30 12:05:05;;;;;;;1.67;1.58;;;28.30;25.80;;;;;;5025789;28;20045;-63
2021/05/30 12:07:31;;;;;;;1.70;1.60;;;27.80;26.00;;;;;;5013654;28;20044;-64
2021/05/30 12:09:59;;;;;;;2.13;1.92;;;27.90;26.20;;;;;;5001754;28;20046;-63
2021/05/30 12:12:42;;;;;;;1.63;1.50;;;27.80;25.90;;;;;;5014274;28;20073;-65
2021/05/30 12:15:21;;;;;;;2.72;1.95;;;27.40;25.70;;;;;;5053742;28;20041;-62
2021/05/30 12:18:06;;;;;;;2.70;2.15;;;27.20;26.10;;;;;;5021102;28;20168;-64
2021/05/30 12:20:37;;;;;;;2.00;1.90;;;27.70;26.00;;;;;;4995768;28;20053;-64
2021/05/30 12:23:16;;;;;;;2.25;2.00;;;27.60;26.00;;;;;;5018746;28;20076;-63
2021/05/30 12:25:58;;;;;;;2.53;1.92;;;27.20;26.40;;;;;;5011532;28;20045;-64
2021/05/30 12:28:27;;;;;;;2.58;2.33;;;27.40;26.10;;;;;;4971130;28;20046;-64
2021/05/30 12:30:54;;;;;;;4.50;3.88;;;26.90;26.50;;;;;;5022925;28;20044;-63
2021/05/30 12:33:22;;;;;;;4.43;3.72;;;26.80;26.60;;;;;;5008913;28;20041;-62
2021/05/30 12:35:54;;;;;;;2.28;2.08;;;27.30;27.00;;;;;;5022666;28;20084;-64
2021/05/30 12:38:28;;;;;;;2.03;1.92;;;28.20;25.80;;;;;;5020079;28;20038;-61
2021/05/30 12:40:57;;;;;;;2.20;1.98;;;28.90;25.60;;;;;;5011893;28;20034;-64
2021/05/30 12:43:37;;;;;;;2.15;1.92;;;29.20;25.20;;;;;;5010214;28;20065;-64
2021/05/30 12:46:04;;;;;;;2.10;2.00;;;29.60;24.00;;;;;;5011177;28;20580;-62
2021/05/30 12:48:44;;;;;;;3.42;1.95;;;30.20;25.70;;;;;;5018580;28;20064;-63
2021/05/30 12:51:17;;;;;;;2.38;2.20;;;30.60;23.10;;;;;;5021302;28;20100;-62
2021/05/30 12:53:45;;;;;;;3.25;2.10;;;30.60;22.40;;;;;;5011318;28;20044;-63
2021/05/30 12:56:18;;;;;;;2.15;1.98;;;30.30;23.50;;;;;;5021534;28;20049;-62